linux/drivers/i2c/busses/
<<
>>
Prefs
Kconfig 43304 2020-06-30 20:21:22
Makefile 6105 2020-06-30 20:21:22
i2c-acorn.c 1932 2021-08-29 15:04:50 -0700
i2c-ali1535.c 15777 2020-06-30 20:21:22
i2c-ali1563.c 11235 2020-06-30 20:21:22
i2c-ali15x3.c 15094 2020-06-30 20:21:22
i2c-altera.c 14465 2020-06-30 20:21:22
i2c-amd-mp2-pci.c 11897 2020-06-30 20:21:22
i2c-amd-mp2-plat.c 9856 2020-06-30 20:21:22
i2c-amd-mp2.h 5836 2020-06-30 20:21:22
i2c-amd756-s4882.c 6922 2021-08-29 15:04:50 -0700
i2c-amd756.c 10651 2021-08-29 15:04:50 -0700
i2c-amd8111.c 12114 2020-06-30 20:21:22
i2c-aspeed.c 32543 2020-06-30 20:21:22
i2c-at91-core.c 8530 2020-06-30 20:21:22
i2c-at91-master.c 28878 2020-06-30 20:21:22
i2c-at91-slave.c 3571 2021-08-29 15:04:50 -0700
i2c-at91.h 6766 2020-06-30 20:21:22
i2c-au1550.c 8721 2021-08-29 15:04:50 -0700
i2c-axxia.c 23574 2020-06-30 20:21:22
i2c-bcm-iproc.c 31439 2020-06-30 20:21:22
i2c-bcm-kona.c 23500 2020-06-30 20:21:22
i2c-bcm2835.c 13743 2020-06-30 20:21:22
i2c-brcmstb.c 19759 2020-06-30 20:21:22
i2c-cadence.c 29902 2020-06-30 20:21:22
i2c-cbus-gpio.c 6983 2021-08-29 15:04:50 -0700
i2c-cht-wc.c 12641 2020-06-30 20:21:22
i2c-cpm.c 17293 2020-06-30 20:21:22
i2c-cros-ec-tunnel.c 8047 2021-08-29 15:04:50 -0700
i2c-davinci.c 25811 2020-06-30 20:21:22
i2c-designware-baytrail.c 939 2021-08-29 15:04:50 -0700
i2c-designware-common.c 9843 2020-06-30 20:21:22
i2c-designware-core.h 10620 2020-06-30 20:21:22
i2c-designware-master.c 19271 2020-06-30 20:21:22
i2c-designware-pcidrv.c 9341 2020-06-30 20:21:22
i2c-designware-platdrv.c 12843 2020-06-30 20:21:22
i2c-designware-slave.c 7310 2020-06-30 20:21:22
i2c-digicolor.c 8186 2020-06-30 20:21:22
i2c-diolan-u2c.c 13044 2021-08-29 15:04:50 -0700
i2c-dln2.c 6165 2021-08-29 15:04:50 -0700
i2c-efm32.c 12501 2020-06-30 20:21:22
i2c-eg20t.c 24765 2020-06-30 20:21:22
i2c-elektor.c 8118 2020-06-30 20:21:22
i2c-emev2.c 10821 2020-06-30 20:21:22
i2c-exynos5.c 23835 2020-06-30 20:21:22
i2c-fsi.c 17849 2020-06-30 20:21:22
i2c-gpio.c 14068 2020-06-30 20:21:22
i2c-highlander.c 10860 2021-08-29 15:04:50 -0700
i2c-hix5hd2.c 12886 2020-06-30 20:21:22
i2c-hydra.c 3462 2021-08-29 15:04:50 -0700
i2c-i801.c 59188 2020-06-30 20:21:22
i2c-ibm_iic.c 19338 2021-08-29 15:04:50 -0700
i2c-ibm_iic.h 2487 2021-08-29 15:04:50 -0700
i2c-icy.c 6182 2020-06-30 20:21:22
i2c-img-scb.c 42131 2020-06-30 20:21:22
i2c-imx-lpi2c.c 16367 2020-06-30 20:21:22
i2c-imx.c 37845 2020-06-30 20:21:22
i2c-iop3xx.c 13279 2020-06-30 20:21:22
i2c-iop3xx.h 3693 2021-08-29 15:04:50 -0700
i2c-isch.c 8496 2021-08-29 15:04:50 -0700
i2c-ismt.c 27553 2020-06-30 20:21:22
i2c-jz4780.c 21750 2020-06-30 20:21:22
i2c-kempld.c 9516 2021-08-29 15:04:50 -0700
i2c-lpc2k.c 12337 2020-06-30 20:21:22
i2c-meson.c 12323 2020-06-30 20:21:22
i2c-mlxcpld.c 15106 2020-06-30 20:21:22
i2c-mpc.c 22213 2020-06-30 20:21:22
i2c-mt65xx.c 27506 2020-06-30 20:21:22
i2c-mt7621.c 8584 2021-08-29 15:04:50 -0700
i2c-mv64xxx.c 28420 2020-06-30 20:21:22
i2c-mxs.c 24721 2020-06-30 20:21:22
i2c-nforce2-s4985.c 6698 2021-08-29 15:04:50 -0700
i2c-nforce2.c 12243 2021-08-29 15:04:50 -0700
i2c-nomadik.c 28420 2020-06-30 20:21:22
i2c-nvidia-gpu.c 10519 2020-06-30 20:21:22
i2c-ocores.c 19672 2020-06-30 20:21:22
i2c-octeon-core.c 19240 2020-06-30 20:21:22
i2c-octeon-core.h 6731 2021-08-29 15:04:50 -0700
i2c-octeon-platdrv.c 7243 2020-06-30 20:21:22
i2c-omap.c 43031 2020-06-30 20:21:22
i2c-opal.c 6717 2020-06-30 20:21:22
i2c-owl.c 12738 2020-06-30 20:21:22
i2c-parport.c 11078 2021-08-29 15:04:50 -0700
i2c-pasemi.c 9888 2021-08-29 15:04:50 -0700
i2c-pca-isa.c 4701 2020-06-30 20:21:22
i2c-pca-platform.c 6127 2020-06-30 20:21:22
i2c-piix4.c 28617 2020-06-30 20:21:22
i2c-pmcmsp.c 16515 2021-08-29 15:04:50 -0700
i2c-pnx.c 21720 2020-06-30 20:21:22
i2c-powermac.c 11994 2020-06-30 20:21:22
i2c-puv3.c 5918 2020-06-30 20:21:22
i2c-pxa-pci.c 3351 2021-08-29 15:04:50 -0700
i2c-pxa.c 33875 2020-06-30 20:21:22
i2c-qcom-geni.c 18266 2020-06-30 20:21:22
i2c-qup.c 49953 2020-06-30 20:21:22
i2c-rcar.c 27766 2020-06-30 20:21:22
i2c-riic.c 12516 2020-06-30 20:21:22
i2c-rk3x.c 36060 2020-06-30 20:21:22
i2c-robotfuzz-osif.c 5006 2020-06-30 20:21:22
i2c-s3c2410.c 31791 2020-06-30 20:21:22
i2c-scmi.c 11369 2020-06-30 20:21:22
i2c-sh7760.c 13152 2020-06-30 20:21:22
i2c-sh_mobile.c 27477 2020-06-30 20:21:22
i2c-sibyte.c 5015 2020-06-30 20:21:22
i2c-simtec.c 3207 2021-08-29 15:04:50 -0700
i2c-sirf.c 13148 2020-06-30 20:21:22
i2c-sis5595.c 11200 2021-08-29 15:04:50 -0700
i2c-sis630.c 14233 2021-08-29 15:04:50 -0700
i2c-sis96x.c 8066 2021-08-29 15:04:50 -0700
i2c-sprd.c 16222 2020-06-30 20:21:22
i2c-st.c 23099 2020-06-30 20:21:22
i2c-stm32.c 3767 2020-06-30 20:21:22
i2c-stm32.h 1597 2021-08-29 15:04:50 -0700
i2c-stm32f4.c 24527 2020-06-30 20:21:22
i2c-stm32f7.c 61631 2020-06-30 20:21:22
i2c-stu300.c 26484 2020-06-30 20:21:22
i2c-sun6i-p2wi.c 8837 2020-06-30 20:21:22
i2c-synquacer.c 17934 2020-06-30 20:21:22
i2c-taos-evm.c 7540 2021-08-29 15:04:50 -0700
i2c-tegra-bpmp.c 8604 2020-06-30 20:21:22
i2c-tegra.c 51337 2020-06-30 20:21:22
i2c-thunderx-pcidrv.c 6284 2021-08-29 15:04:50 -0700
i2c-tiny-usb.c 7862 2021-08-29 15:04:50 -0700
i2c-uniphier-f.c 18231 2020-06-30 20:21:22
i2c-uniphier.c 11030 2020-06-30 20:21:22
i2c-versatile.c 3196 2021-08-29 15:04:50 -0700
i2c-via.c 3563 2021-08-29 15:04:50 -0700
i2c-viapro.c 13811 2020-06-30 20:21:22
i2c-viperboard.c 11985 2021-08-29 15:04:50 -0700
i2c-wmt.c 10827 2021-08-29 15:04:50 -0700
i2c-xgene-slimpro.c 16480 2020-06-30 20:21:22
i2c-xiic.c 25360 2020-06-30 20:21:22
i2c-xlp9xx.c 16032 2020-06-30 20:21:22
i2c-xlr.c 11198 2020-06-30 20:21:22
i2c-zx2967.c 13343 2020-06-30 20:21:22
scx200_acb.c 13311 2020-06-30 20:21:22